createdAt,value
2023-05-18T00:00:37.433Z,8.20
2023-05-18T00:01:37.434Z,8.18
2023-05-18T00:02:37.441Z,8.14
2023-05-18T00:03:37.555Z,8.13
2023-05-18T00:04:37.498Z,8.13
2023-05-18T00:05:37.398Z,8.09
2023-05-18T00:06:37.349Z,8.06
2023-05-18T00:07:37.357Z,8.05
2023-05-18T00:08:37.352Z,7.99
2023-05-18T00:09:37.343Z,7.98
2023-05-18T00:10:37.353Z,7.91
2023-05-18T00:11:37.296Z,7.91
2023-05-18T00:12:37.281Z,7.88
2023-05-18T00:13:37.287Z,7.87
2023-05-18T00:14:37.267Z,7.85
2023-05-18T00:15:37.237Z,7.84
2023-05-18T00:16:37.267Z,7.81
2023-05-18T00:17:37.280Z,7.77
2023-05-18T00:18:37.223Z,7.74
2023-05-18T00:19:37.189Z,7.69
2023-05-18T00:20:37.163Z,7.62
2023-05-18T00:21:37.167Z,7.61
2023-05-18T00:22:37.162Z,7.61
2023-05-18T00:23:37.149Z,7.59
2023-05-18T00:24:37.287Z,7.61
2023-05-18T00:25:37.113Z,7.61
2023-05-18T00:26:37.107Z,7.56
2023-05-18T00:27:37.107Z,7.56
2023-05-18T00:28:37.056Z,7.50
2023-05-18T00:29:37.069Z,7.46
2023-05-18T00:30:37.050Z,7.46
2023-05-18T00:31:37.038Z,7.48
2023-05-18T00:32:37.069Z,7.47
2023-05-18T00:33:36.989Z,7.51
2023-05-18T00:34:36.978Z,7.53
2023-05-18T00:35:36.978Z,7.56
2023-05-18T00:36:36.994Z,7.62
2023-05-18T00:37:36.958Z,7.64
2023-05-18T00:38:36.932Z,7.59
2023-05-18T00:39:36.925Z,7.56
2023-05-18T00:40:36.920Z,7.51
2023-05-18T00:41:36.914Z,7.50
2023-05-18T00:42:36.936Z,7.51
2023-05-18T00:43:36.867Z,7.50
2023-05-18T00:44:36.851Z,7.44
2023-05-18T00:45:36.911Z,7.39
2023-05-18T00:46:37.068Z,7.36
2023-05-18T00:47:36.866Z,7.36
2023-05-18T00:48:36.802Z,7.36
2023-05-18T00:49:36.806Z,7.37
2023-05-18T00:50:36.779Z,7.39
2023-05-18T00:51:36.787Z,7.39
2023-05-18T00:52:36.747Z,7.39
2023-05-18T00:53:36.733Z,7.39
2023-05-18T00:54:36.724Z,7.39
2023-05-18T00:55:36.749Z,7.40
2023-05-18T00:56:36.688Z,7.37
2023-05-18T00:57:36.717Z,7.39
2023-05-18T00:58:36.675Z,7.37
2023-05-18T00:59:36.678Z,7.39
2023-05-18T01:00:36.657Z,7.36
2023-05-18T01:01:36.825Z,7.33
2023-05-18T01:02:36.674Z,7.33
2023-05-18T01:03:36.681Z,7.31
2023-05-18T01:04:36.621Z,7.29
2023-05-18T01:05:36.588Z,7.28
2023-05-18T01:06:36.714Z,7.29
2023-05-18T01:07:36.555Z,7.29
2023-05-18T01:08:36.543Z,7.31
2023-05-18T01:09:36.543Z,7.28
2023-05-18T01:10:36.515Z,7.29
2023-05-18T01:11:36.557Z,7.28
2023-05-18T01:12:36.496Z,7.28
2023-05-18T01:13:36.473Z,7.25
2023-05-18T01:14:36.476Z,7.26
2023-05-18T01:15:36.519Z,7.25
2023-05-18T01:16:36.484Z,7.22
2023-05-18T01:17:36.502Z,7.18
2023-05-18T01:18:36.494Z,7.13
2023-05-18T01:19:36.420Z,7.13
2023-05-18T01:20:36.381Z,7.13
2023-05-18T01:21:36.362Z,7.13
2023-05-18T01:22:36.379Z,7.14
2023-05-18T01:23:36.377Z,7.13
2023-05-18T01:24:36.332Z,7.10
2023-05-18T01:25:36.348Z,7.10
2023-05-18T01:26:36.294Z,7.08
2023-05-18T01:27:36.298Z,7.05
2023-05-18T01:28:36.292Z,6.97
2023-05-18T01:29:36.264Z,6.97
2023-05-18T01:30:36.277Z,6.96
2023-05-18T01:31:36.369Z,6.93
2023-05-18T01:32:36.280Z,6.90
2023-05-18T01:33:36.255Z,6.90
2023-05-18T01:34:36.197Z,6.89
2023-05-18T01:35:36.213Z,6.89
2023-05-18T01:36:36.158Z,6.89
2023-05-18T01:37:36.190Z,6.89
2023-05-18T01:38:36.142Z,6.86
2023-05-18T01:39:36.138Z,6.86
2023-05-18T01:40:36.116Z,6.86
2023-05-18T01:41:36.110Z,6.87
2023-05-18T01:42:36.106Z,6.89
2023-05-18T01:43:36.077Z,6.86
2023-05-18T01:44:36.066Z,6.85
2023-05-18T01:45:36.063Z,6.85
2023-05-18T01:46:36.063Z,6.80
2023-05-18T01:47:36.060Z,6.77
2023-05-18T01:48:36.028Z,6.78
2023-05-18T01:49:36.010Z,6.80
2023-05-18T01:50:35.976Z,6.80
2023-05-18T01:51:35.976Z,6.80
2023-05-18T01:52:35.971Z,6.82
2023-05-18T01:53:35.952Z,6.80
2023-05-18T01:54:35.929Z,6.80
2023-05-18T01:55:35.930Z,6.78
2023-05-18T01:56:35.929Z,6.77
2023-05-18T01:57:35.951Z,6.75
2023-05-18T01:58:35.877Z,6.77
2023-05-18T01:59:35.886Z,6.75
2023-05-18T02:00:35.849Z,6.75
2023-05-18T02:01:35.924Z,6.74
2023-05-18T02:02:35.882Z,6.70
2023-05-18T02:03:35.911Z,6.68
2023-05-18T02:04:35.806Z,6.67
2023-05-18T02:05:35.791Z,6.70
2023-05-18T02:06:35.793Z,6.70
2023-05-18T02:07:35.767Z,6.71
2023-05-18T02:08:35.760Z,6.71
2023-05-18T02:09:35.732Z,6.70
2023-05-18T02:10:35.735Z,6.70
2023-05-18T02:11:35.750Z,6.70
2023-05-18T02:12:35.711Z,6.68
2023-05-18T02:13:35.682Z,6.67
2023-05-18T02:14:35.664Z,6.62
2023-05-18T02:15:35.673Z,6.60
2023-05-18T02:16:35.697Z,6.60
2023-05-18T02:17:35.712Z,6.57
2023-05-18T02:18:35.634Z,6.57
2023-05-18T02:19:35.628Z,6.52
2023-05-18T02:20:35.617Z,6.50
2023-05-18T02:21:35.597Z,6.49
2023-05-18T02:22:35.553Z,6.46
2023-05-18T02:23:35.551Z,6.41
2023-05-18T02:24:35.533Z,6.39
2023-05-18T02:25:35.539Z,6.36
2023-05-18T02:26:35.515Z,6.35
2023-05-18T02:27:35.517Z,6.34
2023-05-18T02:28:35.480Z,6.35
2023-05-18T02:29:35.467Z,6.36
2023-05-18T02:30:35.468Z,6.38
2023-05-18T02:31:35.521Z,6.39
2023-05-18T02:32:35.527Z,6.35
2023-05-18T02:33:35.427Z,6.35
2023-05-18T02:34:35.393Z,6.35
2023-05-18T02:35:35.408Z,6.36
2023-05-18T02:36:35.377Z,6.34
2023-05-18T02:37:35.378Z,6.31
2023-05-18T02:38:35.349Z,6.31
2023-05-18T02:39:35.362Z,6.31
2023-05-18T02:40:35.337Z,6.31
2023-05-18T02:41:35.317Z,6.32
2023-05-18T02:42:35.293Z,6.32
2023-05-18T02:43:35.294Z,6.32
2023-05-18T02:44:35.291Z,6.35
2023-05-18T02:45:35.270Z,6.35
2023-05-18T02:46:35.250Z,6.36
2023-05-18T02:47:35.287Z,6.34
2023-05-18T02:48:35.214Z,6.35
2023-05-18T02:49:35.246Z,6.32
2023-05-18T02:50:35.193Z,6.32
2023-05-18T02:51:35.203Z,6.32
2023-05-18T02:52:35.155Z,6.29
2023-05-18T02:53:35.175Z,6.26
2023-05-18T02:54:35.161Z,6.26
2023-05-18T02:55:35.120Z,6.26
2023-05-18T02:56:35.114Z,6.26
2023-05-18T02:57:35.098Z,6.25
2023-05-18T02:58:35.094Z,6.20
2023-05-18T02:59:35.072Z,6.17
2023-05-18T03:00:35.069Z,6.17
2023-05-18T03:01:35.131Z,6.17
2023-05-18T03:02:35.085Z,6.15
2023-05-18T03:03:35.152Z,6.15
2023-05-18T03:04:35.007Z,6.10
2023-05-18T03:05:34.990Z,6.09
2023-05-18T03:06:34.972Z,6.07
2023-05-18T03:07:34.986Z,6.07
2023-05-18T03:08:34.965Z,6.07
2023-05-18T03:09:34.942Z,6.05
2023-05-18T03:10:34.929Z,6.02
2023-05-18T03:11:34.913Z,6.02
2023-05-18T03:12:34.897Z,6.05
2023-05-18T03:13:34.909Z,6.01
2023-05-18T03:14:34.873Z,5.99
2023-05-18T03:15:34.867Z,5.98
2023-05-18T03:16:34.849Z,6.02
2023-05-18T03:17:34.939Z,6.06
2023-05-18T03:18:34.891Z,6.05
2023-05-18T03:19:34.820Z,6.05
2023-05-18T03:20:34.790Z,6.05
2023-05-18T03:21:34.778Z,6.05
2023-05-18T03:22:34.802Z,6.06
2023-05-18T03:23:34.748Z,6.06
2023-05-18T03:24:34.748Z,6.05
2023-05-18T03:25:34.714Z,6.06
2023-05-18T03:26:34.722Z,6.05
2023-05-18T03:27:34.713Z,6.05
2023-05-18T03:28:34.697Z,6.05
2023-05-18T03:29:34.669Z,6.01
2023-05-18T03:30:34.668Z,5.99
2023-05-18T03:31:34.715Z,5.97
2023-05-18T03:32:34.694Z,5.94
2023-05-18T03:33:34.631Z,5.92
2023-05-18T03:34:34.613Z,5.92
2023-05-18T03:35:34.595Z,5.92
2023-05-18T03:36:34.606Z,5.91
2023-05-18T03:37:34.565Z,5.91
2023-05-18T03:38:34.570Z,5.90
2023-05-18T03:39:34.546Z,5.88
2023-05-18T03:40:34.545Z,5.87
2023-05-18T03:41:34.545Z,5.79
2023-05-18T03:42:34.511Z,5.79
2023-05-18T03:43:34.483Z,5.79
2023-05-18T03:44:34.473Z,5.79
2023-05-18T03:45:34.479Z,5.77
2023-05-18T03:46:34.493Z,5.80
2023-05-18T03:47:34.484Z,5.80
2023-05-18T03:48:34.422Z,5.80
2023-05-18T03:49:34.397Z,5.80
2023-05-18T03:50:34.415Z,5.83
2023-05-18T03:51:34.378Z,5.80
2023-05-18T03:52:34.377Z,5.81
2023-05-18T03:53:34.376Z,5.87
2023-05-18T03:54:34.343Z,5.87
2023-05-18T03:55:34.342Z,5.84
2023-05-18T03:56:34.315Z,5.90
2023-05-18T03:57:34.330Z,5.84
2023-05-18T03:58:34.304Z,5.84
2023-05-18T03:59:34.271Z,5.81
2023-05-18T04:00:34.308Z,5.80
2023-05-18T04:01:34.313Z,5.77
2023-05-18T04:02:34.421Z,5.76
2023-05-18T04:03:34.405Z,5.74
2023-05-18T04:04:34.195Z,5.74
2023-05-18T04:05:34.235Z,5.74
2023-05-18T04:06:34.195Z,5.73
2023-05-18T04:07:34.209Z,5.74
2023-05-18T04:08:34.158Z,5.76
2023-05-18T04:09:34.171Z,5.74
2023-05-18T04:10:34.147Z,5.72
2023-05-18T04:11:34.111Z,5.73
2023-05-18T04:12:34.111Z,5.72
2023-05-18T04:13:34.089Z,5.74
2023-05-18T04:14:34.110Z,5.77
2023-05-18T04:15:34.129Z,5.80
2023-05-18T04:16:34.580Z,5.81
2023-05-18T04:17:34.103Z,5.84
2023-05-18T04:18:34.123Z,5.90
2023-05-18T04:19:34.209Z,5.90
2023-05-18T04:20:33.996Z,5.88
2023-05-18T04:21:34.009Z,5.87
2023-05-18T04:22:33.967Z,5.83
2023-05-18T04:23:33.964Z,5.81
2023-05-18T04:24:33.976Z,5.81
2023-05-18T04:25:33.945Z,5.83
2023-05-18T04:26:33.936Z,5.87
2023-05-18T04:27:33.928Z,5.90
2023-05-18T04:28:33.908Z,5.91
2023-05-18T04:29:33.887Z,5.95
2023-05-18T04:30:33.860Z,5.98
2023-05-18T04:31:33.897Z,6.01
2023-05-18T04:32:33.861Z,6.05
2023-05-18T04:33:33.837Z,6.07
2023-05-18T04:34:33.800Z,6.07
2023-05-18T04:35:33.801Z,6.07
2023-05-18T04:36:33.803Z,6.10
2023-05-18T04:37:33.758Z,6.12
2023-05-18T04:38:33.781Z,6.15
2023-05-18T04:39:33.765Z,6.15
2023-05-18T04:40:33.824Z,6.17
2023-05-18T04:41:33.704Z,6.22
2023-05-18T04:42:33.698Z,6.20
2023-05-18T04:43:33.740Z,6.26
2023-05-18T04:44:33.674Z,6.31
2023-05-18T04:45:33.786Z,6.34
2023-05-18T04:46:33.728Z,6.38
2023-05-18T04:47:33.686Z,6.38
2023-05-18T04:48:33.642Z,6.44
2023-05-18T04:49:33.605Z,6.46
2023-05-18T04:50:33.589Z,6.52
2023-05-18T04:51:33.590Z,6.53
2023-05-18T04:52:33.594Z,6.54
2023-05-18T04:53:33.626Z,6.56
2023-05-18T04:54:33.542Z,6.54
2023-05-18T04:55:33.906Z,6.54
2023-05-18T04:56:33.518Z,6.56
2023-05-18T04:57:33.519Z,6.56
2023-05-18T04:58:33.495Z,6.57
2023-05-18T04:59:33.497Z,6.57
2023-05-18T05:00:33.477Z,6.59
2023-05-18T05:01:33.514Z,6.60
2023-05-18T05:02:33.525Z,6.62
2023-05-18T05:03:33.544Z,6.60
2023-05-18T05:04:33.410Z,6.62
2023-05-18T05:05:33.529Z,6.62
2023-05-18T05:06:33.410Z,6.67
2023-05-18T05:07:33.373Z,6.67
2023-05-18T05:08:33.357Z,6.68
2023-05-18T05:09:33.341Z,6.71
2023-05-18T05:10:33.331Z,6.74
2023-05-18T05:11:33.329Z,6.75
2023-05-18T05:12:33.348Z,6.78
2023-05-18T05:13:33.272Z,6.82
2023-05-18T05:14:33.268Z,6.83
2023-05-18T05:15:33.482Z,6.85
2023-05-18T05:16:33.313Z,6.89
2023-05-18T05:17:33.299Z,6.92
2023-05-18T05:18:33.220Z,6.93
2023-05-18T05:19:33.233Z,6.97
2023-05-18T05:20:33.215Z,7.01
2023-05-18T05:21:33.206Z,7.03
2023-05-18T05:22:33.282Z,7.04
2023-05-18T05:23:33.142Z,7.03
2023-05-18T05:24:33.200Z,7.05
2023-05-18T05:25:34.980Z,7.07
2023-05-18T05:26:33.098Z,7.13
2023-05-18T05:27:33.077Z,7.11
2023-05-18T05:28:33.101Z,7.14
2023-05-18T05:29:33.122Z,7.19
2023-05-18T05:30:33.083Z,7.22
2023-05-18T05:31:33.171Z,7.23
2023-05-18T05:32:33.065Z,7.26
2023-05-18T05:33:33.011Z,7.26
2023-05-18T05:34:33.014Z,7.28
2023-05-18T05:35:33.767Z,7.31
2023-05-18T05:36:32.977Z,7.31
2023-05-18T05:37:32.963Z,7.31
2023-05-18T05:38:32.957Z,7.32
2023-05-18T05:39:32.991Z,7.33
2023-05-18T05:40:32.943Z,7.33
2023-05-18T05:41:32.914Z,7.36
2023-05-18T05:42:32.904Z,7.37
2023-05-18T05:43:32.905Z,7.40
2023-05-18T05:44:32.979Z,7.43
2023-05-18T05:45:33.081Z,7.46
2023-05-18T05:46:32.864Z,7.50
2023-05-18T05:47:32.894Z,7.50
2023-05-18T05:48:32.836Z,7.51
2023-05-18T05:49:32.802Z,7.53
2023-05-18T05:50:32.816Z,7.56
2023-05-18T05:51:32.780Z,7.59
2023-05-18T05:52:32.779Z,7.62
2023-05-18T05:53:32.776Z,7.66
2023-05-18T05:54:32.758Z,7.69
2023-05-18T05:55:33.047Z,7.70
2023-05-18T05:56:32.721Z,7.74
2023-05-18T05:57:32.729Z,7.78
2023-05-18T05:58:32.708Z,7.83
2023-05-18T05:59:32.672Z,7.90
2023-05-18T06:00:32.668Z,7.95
2023-05-18T06:01:32.657Z,7.98
2023-05-18T06:02:32.753Z,8.05
2023-05-18T06:03:35.137Z,8.09
2023-05-18T06:04:32.722Z,8.14
2023-05-18T06:05:33.000Z,8.18
2023-05-18T06:06:32.614Z,8.23
2023-05-18T06:07:32.581Z,8.27
2023-05-18T06:08:32.568Z,8.32
2023-05-18T06:09:32.544Z,8.35
2023-05-18T06:10:32.520Z,8.41
2023-05-18T06:11:32.545Z,8.46
2023-05-18T06:12:32.526Z,8.50
2023-05-18T06:13:32.493Z,8.53
2023-05-18T06:14:32.498Z,8.57
2023-05-18T06:15:32.669Z,8.60
2023-05-18T06:16:32.557Z,8.66
2023-05-18T06:17:32.480Z,8.71
2023-05-18T06:18:32.429Z,8.75
2023-05-18T06:19:32.412Z,8.79
2023-05-18T06:20:32.437Z,8.84
2023-05-18T06:21:32.400Z,8.87
2023-05-18T06:22:32.373Z,8.93
2023-05-18T06:23:32.351Z,8.96
2023-05-18T06:24:32.364Z,9.02
2023-05-18T06:25:32.523Z,9.05
2023-05-18T06:26:32.406Z,9.12
2023-05-18T06:27:32.356Z,9.13
2023-05-18T06:28:32.306Z,9.19
2023-05-18T06:29:32.297Z,9.22
2023-05-18T06:30:32.295Z,9.26
2023-05-18T06:31:32.326Z,9.29
2023-05-18T06:32:32.276Z,9.33
2023-05-18T06:33:32.301Z,9.36
2023-05-18T06:34:32.220Z,9.44
2023-05-18T06:35:32.444Z,9.49
2023-05-18T06:36:32.203Z,9.54
2023-05-18T06:37:32.190Z,9.59
2023-05-18T06:38:32.171Z,9.67
2023-05-18T06:39:32.155Z,9.70
2023-05-18T06:40:32.160Z,9.76
2023-05-18T06:41:32.112Z,9.81
2023-05-18T06:42:32.112Z,10.06
2023-05-18T06:43:32.100Z,10.31
2023-05-18T06:44:32.080Z,10.59
2023-05-18T06:45:33.798Z,10.90
2023-05-18T06:46:32.138Z,11.12
2023-05-18T06:47:32.048Z,11.30
2023-05-18T06:48:32.047Z,11.44
2023-05-18T06:49:32.031Z,11.56
2023-05-18T06:50:32.069Z,11.65
2023-05-18T06:51:31.986Z,11.71
2023-05-18T06:52:31.974Z,11.89
2023-05-18T06:53:32.021Z,12.05
2023-05-18T06:54:31.965Z,12.10
2023-05-18T06:55:32.201Z,12.21
2023-05-18T06:56:31.946Z,12.28
2023-05-18T06:57:31.910Z,12.33
2023-05-18T06:58:31.897Z,12.40
2023-05-18T06:59:31.899Z,12.48
2023-05-18T07:00:31.890Z,12.57
2023-05-18T07:01:31.883Z,12.62
2023-05-18T07:02:31.874Z,12.70
2023-05-18T07:03:31.856Z,12.68
2023-05-18T07:04:31.851Z,12.63
2023-05-18T07:05:32.152Z,12.62
2023-05-18T07:06:31.805Z,12.63
2023-05-18T07:07:31.791Z,12.66
2023-05-18T07:08:31.792Z,12.63
2023-05-18T07:09:31.774Z,12.63
2023-05-18T07:10:31.738Z,12.62
2023-05-18T07:11:31.729Z,12.65
2023-05-18T07:12:31.711Z,12.68
2023-05-18T07:13:31.706Z,12.68
2023-05-18T07:14:31.684Z,12.68
2023-05-18T07:15:31.859Z,12.68
2023-05-18T07:16:31.808Z,12.70
2023-05-18T07:17:31.652Z,12.70
2023-05-18T07:18:31.650Z,12.72
2023-05-18T07:19:31.606Z,12.73
2023-05-18T07:20:31.608Z,12.73
2023-05-18T07:21:31.588Z,12.69
2023-05-18T07:22:31.610Z,12.66
2023-05-18T07:23:31.585Z,12.65
2023-05-18T07:24:31.556Z,12.63
2023-05-18T07:25:31.761Z,12.62
2023-05-18T07:26:31.537Z,12.63
2023-05-18T07:27:31.552Z,12.66
2023-05-18T07:28:31.502Z,12.69
2023-05-18T07:29:31.489Z,12.70
2023-05-18T07:30:31.469Z,12.76
2023-05-18T07:31:31.515Z,12.78
2023-05-18T07:32:31.543Z,12.84
2023-05-18T07:33:31.433Z,12.88
2023-05-18T07:34:31.430Z,12.98
2023-05-18T07:35:31.639Z,12.91
2023-05-18T07:36:31.390Z,12.95
2023-05-18T07:37:31.396Z,13.01
2023-05-18T07:38:31.355Z,13.06
2023-05-18T07:39:31.358Z,13.16
2023-05-18T07:40:31.345Z,13.20
2023-05-18T07:41:31.399Z,13.19
2023-05-18T07:42:31.334Z,13.17
2023-05-18T07:43:31.292Z,13.13
2023-05-18T07:44:31.288Z,13.12
2023-05-18T07:45:31.657Z,13.08
2023-05-18T07:46:31.292Z,13.05
2023-05-18T07:47:31.258Z,13.05
2023-05-18T07:48:31.239Z,13.08
2023-05-18T07:49:31.217Z,13.08
2023-05-18T07:50:31.216Z,13.11
2023-05-18T07:51:31.209Z,13.12
2023-05-18T07:52:31.200Z,13.17
2023-05-18T07:53:31.172Z,13.17
2023-05-18T07:54:31.149Z,13.16
2023-05-18T07:55:31.379Z,13.17
2023-05-18T07:56:31.127Z,13.17
2023-05-18T07:57:31.190Z,13.20
2023-05-18T07:58:31.091Z,13.26
2023-05-18T07:59:31.083Z,13.36
2023-05-18T08:00:31.108Z,13.39
2023-05-18T08:01:31.068Z,13.39
2023-05-18T08:02:33.540Z,13.30
2023-05-18T08:03:31.100Z,13.24
2023-05-18T08:04:31.095Z,13.16
2023-05-18T08:05:31.481Z,13.09
2023-05-18T08:06:30.985Z,13.06
2023-05-18T08:07:30.980Z,13.02
2023-05-18T08:08:31.013Z,12.99
2023-05-18T08:09:30.980Z,12.93
2023-05-18T08:10:30.969Z,12.91
2023-05-18T08:11:30.921Z,12.90
2023-05-18T08:12:30.911Z,12.88
2023-05-18T08:13:33.331Z,12.87
2023-05-18T08:14:30.896Z,12.87
2023-05-18T08:15:31.117Z,12.86
2023-05-18T08:16:30.884Z,12.86
2023-05-18T08:17:30.874Z,12.86
2023-05-18T08:18:30.820Z,12.83
2023-05-18T08:19:30.872Z,12.83
2023-05-18T08:20:30.808Z,12.84
2023-05-18T08:21:30.790Z,12.86
2023-05-18T08:22:30.766Z,12.88
2023-05-18T08:23:30.764Z,12.91
2023-05-18T08:24:30.757Z,12.94
2023-05-18T08:25:31.009Z,12.98
2023-05-18T08:26:30.720Z,13.01
2023-05-18T08:27:30.749Z,13.02
2023-05-18T08:28:30.702Z,13.02
2023-05-18T08:29:30.687Z,13.05
2023-05-18T08:30:30.668Z,13.06
2023-05-18T08:31:30.678Z,13.08
2023-05-18T08:32:30.716Z,13.11
2023-05-18T08:33:30.648Z,13.13
2023-05-18T08:34:30.610Z,13.17
2023-05-18T08:35:30.846Z,13.20
2023-05-18T08:36:30.639Z,13.24
2023-05-18T08:37:30.569Z,13.26
2023-05-18T08:38:30.575Z,13.26
2023-05-18T08:39:31.027Z,13.28
2023-05-18T08:40:30.534Z,13.30
2023-05-18T08:41:30.506Z,13.31
2023-05-18T08:42:41.636Z,13.33
2023-05-18T08:43:31.508Z,13.36
2023-05-18T08:44:30.482Z,13.39
2023-05-18T08:45:30.942Z,13.42
2023-05-18T08:46:30.441Z,13.42
2023-05-18T08:47:30.492Z,13.43
2023-05-18T08:48:30.545Z,13.46
2023-05-18T08:49:30.405Z,13.47
2023-05-18T08:50:30.732Z,13.50
2023-05-18T08:51:30.526Z,13.54
2023-05-18T08:52:30.374Z,13.55
2023-05-18T08:53:30.369Z,13.55
2023-05-18T08:54:30.333Z,13.58
2023-05-18T08:55:30.659Z,13.61
2023-05-18T08:56:30.305Z,13.67
2023-05-18T08:57:33.076Z,13.70
2023-05-18T08:58:32.482Z,13.73
2023-05-18T08:59:30.537Z,13.76
2023-05-18T09:00:32.184Z,13.82
2023-05-18T09:01:30.334Z,13.85
2023-05-18T09:02:30.266Z,13.89
2023-05-18T09:03:30.256Z,13.93
2023-05-18T09:04:30.286Z,13.95
2023-05-18T09:05:30.589Z,13.97
2023-05-18T09:06:30.177Z,13.98
2023-05-18T09:07:30.178Z,14.03
2023-05-18T09:08:30.165Z,14.07
2023-05-18T09:09:30.151Z,14.12
2023-05-18T09:10:30.119Z,14.18
2023-05-18T09:11:30.125Z,14.23
2023-05-18T09:12:30.130Z,14.26
2023-05-18T09:13:30.073Z,14.34
2023-05-18T09:14:30.091Z,14.38
2023-05-18T09:15:30.273Z,14.49
2023-05-18T09:16:30.165Z,14.53
2023-05-18T09:17:30.053Z,14.58
2023-05-18T09:18:30.034Z,14.58
2023-05-18T09:19:30.028Z,14.61
2023-05-18T09:20:30.048Z,14.63
2023-05-18T09:21:30.005Z,14.63
2023-05-18T09:22:29.951Z,14.63
2023-05-18T09:23:29.950Z,14.62
2023-05-18T09:24:29.952Z,14.61
2023-05-18T09:25:30.182Z,14.59
2023-05-18T09:26:29.930Z,14.53
2023-05-18T09:27:29.901Z,14.49
2023-05-18T09:28:29.872Z,14.52
2023-05-18T09:29:32.341Z,14.58
2023-05-18T09:30:29.896Z,14.68
2023-05-18T09:31:29.935Z,14.77
2023-05-18T09:32:29.848Z,14.81
2023-05-18T09:33:30.287Z,14.92
2023-05-18T09:34:29.800Z,14.97
2023-05-18T09:35:30.329Z,15.08
2023-05-18T09:36:29.765Z,15.19
2023-05-18T09:37:29.763Z,15.30
2023-05-18T09:38:29.749Z,15.35
2023-05-18T09:39:29.769Z,15.29
2023-05-18T09:40:29.744Z,15.33
2023-05-18T09:41:29.752Z,15.33
2023-05-18T09:42:29.682Z,15.29
2023-05-18T09:43:29.687Z,15.25
2023-05-18T09:44:29.688Z,15.23
2023-05-18T09:45:29.865Z,15.17
2023-05-18T09:46:29.663Z,15.14
2023-05-18T09:47:29.648Z,15.14
2023-05-18T09:48:29.616Z,15.07
2023-05-18T09:49:29.614Z,14.97
2023-05-18T09:50:29.598Z,14.93
2023-05-18T09:51:29.612Z,14.90
2023-05-18T09:52:29.560Z,14.87
2023-05-18T09:53:29.541Z,14.87
2023-05-18T09:54:29.596Z,14.93
2023-05-18T09:55:29.733Z,15.00
2023-05-18T09:56:29.528Z,15.00
2023-05-18T09:57:29.529Z,14.99
2023-05-18T09:58:29.525Z,14.87
2023-05-18T09:59:29.513Z,14.82
2023-05-18T10:00:29.482Z,14.79
2023-05-18T10:01:29.581Z,14.77
2023-05-18T10:02:29.559Z,14.79
2023-05-18T10:03:29.452Z,14.85
2023-05-18T10:04:29.438Z,14.82
2023-05-18T10:05:29.555Z,14.86
2023-05-18T10:06:29.396Z,14.89
2023-05-18T10:07:29.376Z,14.96
2023-05-18T10:08:29.362Z,15.02
2023-05-18T10:09:29.343Z,15.11
2023-05-18T10:10:29.648Z,15.19
2023-05-18T10:11:29.305Z,15.27
2023-05-18T10:12:29.308Z,15.35
2023-05-18T10:13:29.291Z,15.39
2023-05-18T10:14:31.267Z,15.43
2023-05-18T10:15:29.421Z,15.47
2023-05-18T10:16:29.264Z,15.44
2023-05-18T10:17:29.311Z,15.45
2023-05-18T10:18:29.240Z,15.45
2023-05-18T10:19:29.247Z,15.47
2023-05-18T10:20:29.371Z,15.51
2023-05-18T10:21:29.198Z,15.45
2023-05-18T10:22:29.162Z,15.47
2023-05-18T10:23:29.165Z,15.47
2023-05-18T10:24:29.120Z,15.48
2023-05-18T10:25:29.125Z,15.52
2023-05-18T10:26:29.110Z,15.55
2023-05-18T10:27:29.108Z,15.62
2023-05-18T10:28:29.085Z,15.70
2023-05-18T10:29:29.054Z,15.73
2023-05-18T10:30:29.357Z,15.75
2023-05-18T10:31:29.110Z,15.78
2023-05-18T10:32:29.056Z,15.83
2023-05-18T10:33:30.154Z,15.85
2023-05-18T10:34:28.993Z,15.88
2023-05-18T10:35:28.975Z,15.91
2023-05-18T10:36:28.984Z,15.92
2023-05-18T10:37:28.967Z,15.94
2023-05-18T10:38:28.931Z,15.99
2023-05-18T10:39:28.920Z,15.96
2023-05-18T10:40:29.232Z,15.85
2023-05-18T10:41:28.923Z,15.81
2023-05-18T10:42:28.881Z,15.85
2023-05-18T10:43:28.882Z,15.88
2023-05-18T10:44:28.869Z,15.90
2023-05-18T10:45:28.864Z,15.91
2023-05-18T10:46:28.934Z,15.91
2023-05-18T10:47:29.009Z,15.83
2023-05-18T10:48:28.908Z,15.73
2023-05-18T10:49:28.791Z,15.73
2023-05-18T10:50:28.970Z,15.81
2023-05-18T10:51:28.791Z,15.85
2023-05-18T10:52:28.807Z,15.87
2023-05-18T10:53:28.742Z,15.90
2023-05-18T10:54:28.712Z,15.94
2023-05-18T10:55:28.769Z,15.98
2023-05-18T10:56:28.702Z,16.00
2023-05-18T10:57:28.685Z,15.96
2023-05-18T10:58:28.677Z,15.90
2023-05-18T10:59:28.687Z,15.78
2023-05-18T11:00:28.860Z,15.66
2023-05-18T11:01:28.647Z,15.73
2023-05-18T11:02:28.656Z,15.73
2023-05-18T11:03:28.800Z,15.84
2023-05-18T11:04:28.649Z,15.90
2023-05-18T11:05:28.602Z,15.91
2023-05-18T11:06:28.560Z,15.90
2023-05-18T11:07:28.557Z,15.90
2023-05-18T11:08:28.518Z,15.99
2023-05-18T11:09:28.540Z,16.05
2023-05-18T11:10:28.627Z,16.13
2023-05-18T11:11:28.513Z,16.17
2023-05-18T11:12:28.478Z,16.22
2023-05-18T11:13:28.461Z,16.25
2023-05-18T11:14:28.480Z,16.25
2023-05-18T11:15:28.441Z,16.29
2023-05-18T11:16:30.520Z,16.40
2023-05-18T11:17:28.456Z,16.46
2023-05-18T11:18:28.388Z,16.51
2023-05-18T11:19:28.406Z,16.50
2023-05-18T11:20:28.385Z,16.58
2023-05-18T11:21:28.351Z,16.62
2023-05-18T11:22:29.907Z,16.66
2023-05-18T11:23:28.343Z,16.69
2023-05-18T11:24:28.333Z,16.69
2023-05-18T11:25:28.410Z,16.61
2023-05-18T11:26:28.281Z,16.58
2023-05-18T11:27:28.274Z,16.57
2023-05-18T11:28:28.269Z,16.62
2023-05-18T11:29:28.241Z,16.68
2023-05-18T11:30:28.243Z,16.76
2023-05-18T11:31:28.231Z,16.77
2023-05-18T11:32:30.325Z,16.82
2023-05-18T11:33:28.260Z,16.84
2023-05-18T11:34:28.159Z,16.86
2023-05-18T11:35:28.168Z,16.89
2023-05-18T11:36:28.151Z,16.89
2023-05-18T11:37:28.146Z,16.97
2023-05-18T11:38:28.135Z,16.99
2023-05-18T11:39:28.114Z,17.05
2023-05-18T11:40:28.127Z,17.07
2023-05-18T11:41:28.090Z,17.09
2023-05-18T11:42:28.083Z,17.09
2023-05-18T11:43:28.064Z,17.10
2023-05-18T11:44:28.066Z,17.12
2023-05-18T11:45:28.035Z,17.12
2023-05-18T11:46:28.005Z,17.14
2023-05-18T11:47:28.029Z,17.16
2023-05-18T11:48:28.050Z,17.12
2023-05-18T11:49:27.964Z,17.12
2023-05-18T11:50:27.996Z,17.07
2023-05-18T11:51:27.936Z,17.13
2023-05-18T11:52:27.944Z,17.02
2023-05-18T11:53:27.911Z,16.92
2023-05-18T11:54:27.940Z,16.89
2023-05-18T11:55:27.892Z,16.83
2023-05-18T11:56:27.860Z,16.84
2023-05-18T11:57:27.882Z,16.86
2023-05-18T11:58:27.854Z,16.91
2023-05-18T11:59:27.833Z,16.99
2023-05-18T12:00:27.821Z,17.05
2023-05-18T12:01:27.835Z,17.07
2023-05-18T12:02:27.948Z,17.13
2023-05-18T12:03:27.845Z,17.20
2023-05-18T12:04:27.806Z,17.31
2023-05-18T12:05:27.743Z,17.37
2023-05-18T12:06:27.763Z,17.38
2023-05-18T12:07:27.731Z,17.41
2023-05-18T12:08:27.729Z,17.46
2023-05-18T12:09:27.695Z,17.52
2023-05-18T12:10:27.695Z,17.57
2023-05-18T12:11:27.698Z,17.66
2023-05-18T12:12:27.685Z,17.68
2023-05-18T12:13:27.645Z,17.68
2023-05-18T12:14:27.632Z,17.65
2023-05-18T12:15:27.644Z,17.66
2023-05-18T12:16:27.676Z,17.65
2023-05-18T12:17:27.628Z,17.65
2023-05-18T12:18:27.580Z,17.71
2023-05-18T12:19:27.752Z,17.69
2023-05-18T12:20:27.586Z,17.73
2023-05-18T12:21:27.551Z,17.75
2023-05-18T12:22:27.510Z,17.72
2023-05-18T12:23:27.500Z,17.69
2023-05-18T12:24:27.490Z,17.68
2023-05-18T12:25:27.478Z,17.71
2023-05-18T12:26:27.462Z,17.78
2023-05-18T12:27:27.435Z,17.82
2023-05-18T12:28:27.442Z,17.87
2023-05-18T12:29:27.441Z,17.91
2023-05-18T12:30:27.448Z,18.03
2023-05-18T12:31:27.425Z,18.12
2023-05-18T12:32:27.398Z,18.23
2023-05-18T12:33:27.390Z,18.26
2023-05-18T12:34:27.384Z,18.28
2023-05-18T12:35:27.379Z,18.30
2023-05-18T12:36:27.377Z,18.37
2023-05-18T12:37:34.178Z,18.45
2023-05-18T12:38:28.323Z,18.55
2023-05-18T12:39:28.942Z,18.60
2023-05-18T12:40:27.290Z,18.55
2023-05-18T12:41:34.444Z,18.55
2023-05-18T12:42:27.257Z,18.53
2023-05-18T12:43:27.244Z,18.55
2023-05-18T12:44:27.273Z,18.60
2023-05-18T12:45:27.224Z,18.66
2023-05-18T12:46:27.338Z,18.71
2023-05-18T12:47:27.225Z,18.68
2023-05-18T12:48:27.219Z,18.74
2023-05-18T12:49:27.219Z,18.73
2023-05-18T12:50:27.284Z,18.63
2023-05-18T12:51:27.156Z,18.60
2023-05-18T12:52:27.160Z,18.66
2023-05-18T12:53:27.145Z,18.70
2023-05-18T12:54:27.113Z,18.74
2023-05-18T12:55:27.097Z,18.78
2023-05-18T12:56:27.074Z,18.76
2023-05-18T12:57:27.180Z,18.76
2023-05-18T12:58:27.069Z,18.86
2023-05-18T12:59:27.028Z,18.92
2023-05-18T13:00:27.031Z,19.00
2023-05-18T13:01:27.054Z,18.96
2023-05-18T13:02:27.155Z,18.88
2023-05-18T13:03:27.085Z,18.92
2023-05-18T13:04:26.958Z,18.92
2023-05-18T13:05:26.980Z,18.96